Fernandina Beach, Florida
Current Conditions -  °F | °C
As of 9:55 AM on Wednesday 22 Oct 2014 (Local Time) from KFHB Reporting Station
Clear Clear  
Wind Chill: 72°   Ceiling: Unl
Heat Index: 72°   Visibility: 10mi
Dew Point: 61°   Wind: 8mph
Humidity: 69%   Direction: 340°NNW
Pressure: 30.02"   Gusts: NA
Location:  30.67°N, 81.46°W
Report Text: KFHB 221355Z AUTO 34007KT 10SM CLR 22/16 A3002 RMK AO1
Loading
Personal Weather Stations






























Interactive Weather Map
Tropical Storm Tracking
New forecast layout! Learn more

10-Day Weather Forecast

Advertisements
Track Severe Weather on mobile